KLUK/LUK METAR and TAF weather

Enter ICAO airport designator
Station Type Date Time Source
KLUK METAR 2022/01/29 13:53 UTC NOAA

KLUK 291353Z 00000KT 7SM CLR M16/M17 A3034 RMK AO2 SLP282 T11611167


Station Type Date Time Source
KLUK Decoded METAR 2022/01/29 13:53 UTC NOAA

CINCINNATI MUN LUNKEN FLD, OH, United States (KLUK) 39-06N 84-25W 155M
Jan 29, 2022 - 08:53 AM EST / 2022.01.29 1353 UTC
Wind: Calm:0
Visibility: 7 mile(s):0
Sky conditions: clear
Temperature: 3.0 F (-16.1 C)
Dew Point: 1.9 F (-16.7 C)
Relative Humidity: 95%
Pressure (altimeter): 30.34 in. Hg (1027 hPa)
ob: KLUK 291353Z 00000KT 7SM CLR M16/M17 A3034 RMK AO2 SLP282 T11611167
cycle: 14

Station Type Date Time Source
KLUK TAF 2022/01/29 12:33 UTC NOAA

TAF KLUK 291130Z 2912/3012 30004KT P6SM SKC
FM291900 25006KT P6SM SCT070 SCT120
FM292300 20003KT P6SM BKN070 BKN100
FM300700 18003KT P6SM FEW100

Example: see airport list